createdAt,value
2018-10-21T00:00:28.096Z,11.03
2018-10-21T00:02:55.461Z,10.80
2018-10-21T00:05:22.747Z,11.03
2018-10-21T00:07:50.054Z,11.47
2018-10-21T00:10:17.365Z,10.63
2018-10-21T00:12:44.645Z,11.33
2018-10-21T00:15:12.048Z,10.47
2018-10-21T00:17:39.266Z,11.37
2018-10-21T00:20:07.053Z,11.47
2018-10-21T00:22:34.364Z,12.20
2018-10-21T00:25:01.716Z,12.40
2018-10-21T00:27:29.235Z,11.27
2018-10-21T00:29:56.770Z,12.90
2018-10-21T00:32:28.660Z,12.30
2018-10-21T00:34:56.016Z,11.30
2018-10-21T00:37:23.377Z,12.30
2018-10-21T00:39:50.706Z,11.43
2018-10-21T00:42:18.025Z,11.87
2018-10-21T00:44:45.338Z,12.37
2018-10-21T00:47:12.629Z,12.00
2018-10-21T00:49:39.952Z,11.50
2018-10-21T00:52:07.226Z,12.70
2018-10-21T00:54:34.558Z,11.97
2018-10-21T00:57:01.907Z,11.87
2018-10-21T00:59:29.269Z,11.83
2018-10-21T01:01:56.596Z,12.20
2018-10-21T01:04:23.908Z,11.67
2018-10-21T01:06:51.190Z,11.77
2018-10-21T01:09:18.643Z,12.40
2018-10-21T01:11:45.829Z,11.63
2018-10-21T01:14:13.092Z,12.13
2018-10-21T01:16:40.396Z,11.77
2018-10-21T01:19:07.689Z,12.60
2018-10-21T01:21:35.535Z,12.17
2018-10-21T01:24:02.884Z,11.73
2018-10-21T01:26:30.182Z,11.37
2018-10-21T01:28:57.501Z,11.30
2018-10-21T01:31:24.799Z,11.67
2018-10-21T01:33:52.074Z,10.93
2018-10-21T01:36:19.683Z,11.90
2018-10-21T01:38:46.796Z,11.80
2018-10-21T01:41:14.168Z,12.20
2018-10-21T01:43:41.445Z,11.80
2018-10-21T01:46:08.752Z,11.37
2018-10-21T01:48:36.123Z,11.27
2018-10-21T01:51:03.564Z,11.87
2018-10-21T01:53:30.833Z,12.13
2018-10-21T01:55:58.164Z,11.43
2018-10-21T01:58:25.453Z,11.40
2018-10-21T02:00:52.738Z,11.03
2018-10-21T02:03:20.041Z,10.90
2018-10-21T02:05:47.741Z,10.73
2018-10-21T02:08:15.032Z,11.13
2018-10-21T02:10:42.392Z,11.03
2018-10-21T02:13:09.698Z,11.27
2018-10-21T02:15:36.977Z,11.20
2018-10-21T02:18:04.571Z,11.07
2018-10-21T02:20:31.855Z,11.43
2018-10-21T02:22:59.177Z,11.20
2018-10-21T02:25:26.499Z,11.53
2018-10-21T02:27:53.847Z,11.37
2018-10-21T02:30:23.289Z,11.17
2018-10-21T02:32:51.241Z,10.97
2018-10-21T02:35:19.012Z,10.73
2018-10-21T02:37:46.610Z,11.00
2018-10-21T02:41:33.455Z,10.53
2018-10-21T02:44:00.985Z,10.20
2018-10-21T02:46:28.593Z,10.73
2018-10-21T02:48:56.745Z,11.00
2018-10-21T02:51:24.091Z,10.57
2018-10-21T02:53:51.464Z,10.60
2018-10-21T02:56:18.772Z,10.70
2018-10-21T02:58:46.130Z,10.53
2018-10-21T03:01:13.452Z,11.43
2018-10-21T03:03:40.766Z,10.73
2018-10-21T03:06:08.126Z,10.47
2018-10-21T03:08:36.001Z,10.53
2018-10-21T03:11:03.328Z,10.83
2018-10-21T03:13:31.066Z,11.10
2018-10-21T03:15:58.365Z,10.60
2018-10-21T03:18:25.774Z,10.97
2018-10-21T03:20:53.344Z,11.07
2018-10-21T03:23:20.638Z,10.23
2018-10-21T03:25:47.935Z,11.20
2018-10-21T03:28:15.564Z,10.27
2018-10-21T03:30:42.893Z,10.30
2018-10-21T03:33:10.311Z,10.57
2018-10-21T03:35:37.533Z,9.93
2018-10-21T03:38:05.052Z,10.13
2018-10-21T03:40:32.368Z,9.73
2018-10-21T03:42:59.708Z,10.43
2018-10-21T03:45:27.005Z,11.07
2018-10-21T03:47:54.697Z,10.30
2018-10-21T03:50:22.913Z,9.57
2018-10-21T03:52:50.361Z,9.40
2018-10-21T03:55:17.677Z,9.87
2018-10-21T03:57:45.065Z,10.70
2018-10-21T04:00:12.428Z,10.33
2018-10-21T04:02:39.709Z,9.87
2018-10-21T04:05:07.236Z,10.53
2018-10-21T04:07:34.541Z,11.20
2018-10-21T04:10:01.908Z,10.33
2018-10-21T04:12:29.285Z,10.10
2018-10-21T04:14:56.616Z,11.03
2018-10-21T04:17:23.915Z,10.10
2018-10-21T04:19:51.528Z,10.30
2018-10-21T04:22:18.814Z,10.70
2018-10-21T04:24:46.101Z,10.83
2018-10-21T04:27:13.388Z,10.60
2018-10-21T04:29:40.714Z,10.87
2018-10-21T04:32:07.996Z,11.53
2018-10-21T04:34:35.341Z,11.80
2018-10-21T04:37:14.196Z,9.87
2018-10-21T04:39:53.120Z,11.13
2018-10-21T04:42:20.435Z,10.80
2018-10-21T04:44:47.699Z,10.87
2018-10-21T04:47:20.833Z,10.70
2018-10-21T04:49:48.129Z,10.97
2018-10-21T04:52:15.625Z,11.23
2018-10-21T04:54:42.818Z,11.77
2018-10-21T04:57:10.117Z,11.23
2018-10-21T04:59:38.720Z,11.13
2018-10-21T05:02:05.993Z,11.00
2018-10-21T05:04:33.510Z,10.70
2018-10-21T05:07:00.764Z,10.30
2018-10-21T05:09:28.071Z,10.80
2018-10-21T05:11:55.391Z,11.23
2018-10-21T05:14:23.068Z,11.60
2018-10-21T05:16:50.402Z,10.83
2018-10-21T05:19:17.700Z,11.20
2018-10-21T05:21:44.988Z,10.97
2018-10-21T05:24:12.556Z,10.87
2018-10-21T05:26:39.833Z,11.40
2018-10-21T05:29:07.117Z,11.10
2018-10-21T05:31:34.753Z,10.70
2018-10-21T05:34:02.100Z,11.07
2018-10-21T05:36:29.360Z,10.80
2018-10-21T05:38:56.971Z,12.00
2018-10-21T05:41:24.372Z,11.33
2018-10-21T05:43:52.477Z,11.60
2018-10-21T05:46:31.208Z,10.97
2018-10-21T05:48:58.485Z,11.47
2018-10-21T05:51:25.777Z,11.00
2018-10-21T05:53:53.097Z,11.60
2018-10-21T05:56:20.391Z,11.07
2018-10-21T05:58:47.877Z,11.30
2018-10-21T06:01:15.213Z,11.47
2018-10-21T06:03:42.527Z,11.40
2018-10-21T06:06:11.895Z,11.83
2018-10-21T06:08:39.153Z,11.47
2018-10-21T06:11:06.469Z,11.73
2018-10-21T06:13:33.769Z,11.40
2018-10-21T06:16:01.163Z,10.87
2018-10-21T06:18:28.624Z,10.83
2018-10-21T06:20:59.667Z,11.10
2018-10-21T06:23:29.328Z,11.17
2018-10-21T06:25:56.601Z,11.00
2018-10-21T06:28:24.170Z,11.57
2018-10-21T06:30:51.613Z,10.23
2018-10-21T06:33:19.006Z,11.13
2018-10-21T06:35:46.322Z,10.37
2018-10-21T06:38:13.587Z,11.30
2018-10-21T06:40:41.117Z,10.33
2018-10-21T06:43:08.628Z,10.70
2018-10-21T06:45:35.949Z,10.60
2018-10-21T06:48:03.676Z,10.83
2018-10-21T06:50:30.997Z,11.10
2018-10-21T06:52:58.381Z,9.93
2018-10-21T06:55:25.667Z,10.03
2018-10-21T06:57:52.960Z,10.77
2018-10-21T07:00:20.261Z,25.33
2018-10-21T07:02:47.548Z,10.43
2018-10-21T07:05:26.468Z,11.13
2018-10-21T07:07:53.857Z,11.23
2018-10-21T07:10:21.145Z,10.93
2018-10-21T07:12:48.621Z,9.97
2018-10-21T07:15:16.040Z,10.50
2018-10-21T07:17:43.703Z,10.37
2018-10-21T07:20:11.125Z,10.73
2018-10-21T07:22:38.644Z,10.23
2018-10-21T07:25:06.457Z,10.43
2018-10-21T07:27:33.744Z,11.27
2018-10-21T07:30:01.085Z,9.97
2018-10-21T07:32:28.489Z,11.63
2018-10-21T07:34:55.809Z,12.67
2018-10-21T07:37:23.130Z,11.50
2018-10-21T07:39:50.489Z,11.33
2018-10-21T07:42:17.786Z,12.03
2018-10-21T07:44:45.078Z,12.30
2018-10-21T07:47:12.720Z,11.03
2018-10-21T07:49:39.993Z,12.33
2018-10-21T07:52:07.396Z,13.17
2018-10-21T07:54:35.141Z,13.57
2018-10-21T07:57:02.471Z,12.80
2018-10-21T08:00:00.685Z,12.87
2018-10-21T08:05:33.144Z,12.53
2018-10-21T08:08:08.777Z,12.30
2018-10-21T08:10:36.086Z,12.80
2018-10-21T08:13:03.390Z,12.97
2018-10-21T08:15:30.725Z,12.73
2018-10-21T08:17:58.048Z,13.23
2018-10-21T08:20:25.390Z,12.67
2018-10-21T08:22:52.791Z,13.67
2018-10-21T08:25:20.121Z,12.60
2018-10-21T08:27:47.401Z,13.57
2018-10-21T08:30:14.715Z,13.50
2018-10-21T08:32:42.033Z,12.70
2018-10-21T08:35:09.396Z,14.10
2018-10-21T08:37:36.737Z,13.65
2018-10-21T08:40:04.078Z,13.43
2018-10-21T08:42:31.441Z,14.25
2018-10-21T08:44:58.793Z,13.95
2018-10-21T08:47:26.145Z,13.80
2018-10-21T08:49:53.510Z,14.13
2018-10-21T08:52:21.206Z,13.72
2018-10-21T08:54:48.545Z,14.03
2018-10-21T08:57:15.837Z,13.62
2018-10-21T08:59:43.180Z,12.15
2018-10-21T09:02:10.553Z,13.65
2018-10-21T09:04:37.797Z,12.73
2018-10-21T09:07:05.127Z,12.40
2018-10-21T09:09:32.428Z,12.60
2018-10-21T09:11:59.764Z,11.75
2018-10-21T09:14:27.057Z,11.78
2018-10-21T09:16:54.392Z,11.90
2018-10-21T09:19:21.808Z,10.60
2018-10-21T09:21:49.140Z,10.98
2018-10-21T09:24:16.455Z,11.57
2018-10-21T09:26:43.782Z,11.85
2018-10-21T09:29:11.098Z,11.65
2018-10-21T09:31:38.463Z,10.65
2018-10-21T09:34:05.855Z,11.55
2018-10-21T09:36:33.149Z,11.85
2018-10-21T09:39:00.469Z,11.40
2018-10-21T09:41:27.776Z,11.20
2018-10-21T09:43:55.148Z,11.95
2018-10-21T09:46:22.597Z,11.30
2018-10-21T09:48:50.161Z,11.18
2018-10-21T09:51:17.489Z,11.20
2018-10-21T09:53:44.798Z,12.07
2018-10-21T09:56:12.149Z,10.98
2018-10-21T09:58:39.604Z,11.08
2018-10-21T10:01:12.518Z,11.70
2018-10-21T10:03:39.832Z,10.68
2018-10-21T10:06:07.181Z,10.55
2018-10-21T10:08:34.590Z,10.23
2018-10-21T10:11:01.973Z,10.55
2018-10-21T10:13:29.320Z,10.58
2018-10-21T10:15:56.729Z,10.65
2018-10-21T10:18:24.010Z,10.78
2018-10-21T10:20:51.306Z,10.95
2018-10-21T10:23:18.785Z,10.40
2018-10-21T10:25:46.074Z,10.58
2018-10-21T10:28:13.537Z,10.60
2018-10-21T10:30:40.776Z,9.68
2018-10-21T10:33:08.081Z,9.93
2018-10-21T10:35:35.442Z,10.10
2018-10-21T10:38:02.760Z,9.35
2018-10-21T10:40:30.090Z,9.53
2018-10-21T10:42:57.444Z,9.70
2018-10-21T10:45:24.715Z,9.63
2018-10-21T10:47:52.108Z,10.18
2018-10-21T10:50:19.426Z,11.25
2018-10-21T10:52:46.785Z,11.18
2018-10-21T10:55:14.151Z,12.23
2018-10-21T10:57:41.433Z,12.33
2018-10-21T11:00:09.950Z,12.50
2018-10-21T11:02:37.222Z,13.00
2018-10-21T11:05:05.607Z,13.08
2018-10-21T11:07:32.926Z,13.28
2018-10-21T11:10:00.237Z,12.95
2018-10-21T11:12:27.578Z,13.20
2018-10-21T11:14:54.930Z,13.93
2018-10-21T11:17:22.203Z,12.45
2018-10-21T11:19:49.511Z,13.75
2018-10-21T11:22:16.921Z,12.80
2018-10-21T11:24:47.177Z,12.25
2018-10-21T11:27:15.253Z,11.70
2018-10-21T11:29:42.758Z,12.80
2018-10-21T11:32:10.122Z,11.00
2018-10-21T11:34:38.282Z,10.18
2018-10-21T11:37:05.736Z,9.85
2018-10-21T11:39:33.027Z,9.60
2018-10-21T11:42:00.333Z,9.05
2018-10-21T11:44:27.752Z,8.78
2018-10-21T11:46:55.289Z,7.30
2018-10-21T11:49:22.653Z,6.58
2018-10-21T11:51:49.953Z,6.10
2018-10-21T11:54:17.337Z,6.08
2018-10-21T11:56:44.668Z,6.42
2018-10-21T11:59:11.989Z,5.78
2018-10-21T12:01:39.359Z,6.45
2018-10-21T12:04:06.783Z,5.60
2018-10-21T12:06:34.009Z,5.58
2018-10-21T12:09:01.323Z,6.03
2018-10-21T12:11:28.634Z,5.67
2018-10-21T12:13:55.957Z,4.62
2018-10-21T12:16:23.240Z,4.10
2018-10-21T12:18:50.560Z,4.55
2018-10-21T12:21:17.922Z,4.87
2018-10-21T12:23:45.287Z,4.58
2018-10-21T12:26:12.589Z,6.00
2018-10-21T12:28:39.884Z,5.78
2018-10-21T12:31:07.258Z,5.87
2018-10-21T12:33:40.553Z,5.87
2018-10-21T12:36:07.909Z,6.08
2018-10-21T12:38:35.194Z,6.35
2018-10-21T12:41:02.585Z,6.42
2018-10-21T12:43:29.880Z,5.90
2018-10-21T12:45:57.251Z,5.37
2018-10-21T12:48:24.501Z,5.90
2018-10-21T12:50:51.781Z,6.67
2018-10-21T12:53:19.094Z,6.33
2018-10-21T12:55:46.474Z,5.80
2018-10-21T12:58:13.801Z,6.20
2018-10-21T13:00:41.081Z,5.30
2018-10-21T13:03:08.430Z,5.60
2018-10-21T13:05:35.749Z,5.95
2018-10-21T13:08:03.065Z,5.95
2018-10-21T13:10:30.465Z,6.30
2018-10-21T13:12:57.796Z,5.60
2018-10-21T13:15:25.180Z,5.50
2018-10-21T13:17:52.505Z,6.25
2018-10-21T13:20:19.866Z,5.08
2018-10-21T13:22:47.204Z,5.45
2018-10-21T13:25:14.569Z,5.00
2018-10-21T13:27:41.922Z,5.28
2018-10-21T13:30:09.298Z,6.00
2018-10-21T13:32:36.648Z,5.30
2018-10-21T13:35:04.434Z,4.60
2018-10-21T13:37:31.861Z,4.80
2018-10-21T13:39:59.242Z,5.05
2018-10-21T13:42:26.516Z,4.58
2018-10-21T13:44:53.807Z,4.20
2018-10-21T13:47:21.125Z,4.08
2018-10-21T13:49:48.465Z,4.22
2018-10-21T13:52:15.893Z,4.37
2018-10-21T13:54:43.167Z,4.58
2018-10-21T13:57:10.475Z,4.22
2018-10-21T13:59:37.753Z,3.77
2018-10-21T14:02:05.092Z,4.25
2018-10-21T14:04:32.357Z,3.85
2018-10-21T14:06:59.705Z,4.10
2018-10-21T14:09:26.999Z,4.00
2018-10-21T14:11:54.355Z,4.25
2018-10-21T14:14:22.265Z,3.90
2018-10-21T14:16:49.577Z,4.33
2018-10-21T14:19:16.884Z,4.28
2018-10-21T14:21:44.294Z,4.37
2018-10-21T14:24:11.676Z,5.10
2018-10-21T14:26:39.024Z,4.78
2018-10-21T14:29:06.394Z,4.20
2018-10-21T14:31:33.702Z,4.40
2018-10-21T14:34:01.102Z,5.45
2018-10-21T14:36:28.524Z,4.60
2018-10-21T14:38:55.905Z,4.90
2018-10-21T14:41:23.278Z,4.55
2018-10-21T14:43:50.575Z,4.65
2018-10-21T14:46:17.850Z,4.75
2018-10-21T14:48:45.151Z,4.30
2018-10-21T14:51:12.630Z,4.55
2018-10-21T14:53:39.853Z,4.25
2018-10-21T14:56:07.559Z,4.22
2018-10-21T14:58:35.113Z,4.30
2018-10-21T15:01:02.410Z,4.42
2018-10-21T15:03:29.854Z,4.47
2018-10-21T15:05:57.168Z,4.30
2018-10-21T15:08:24.538Z,4.45
2018-10-21T15:10:51.896Z,4.67
2018-10-21T15:13:19.273Z,4.55
2018-10-21T15:15:46.718Z,4.40
2018-10-21T15:18:13.973Z,4.35
2018-10-21T15:20:41.361Z,4.20
2018-10-21T15:23:08.759Z,4.25
2018-10-21T15:25:36.049Z,4.22
2018-10-21T15:28:03.587Z,4.10
2018-10-21T15:30:30.886Z,4.00
2018-10-21T15:32:58.221Z,4.40
2018-10-21T15:35:25.537Z,4.35
2018-10-21T15:37:52.849Z,4.00
2018-10-21T15:40:20.221Z,3.42
2018-10-21T15:42:47.588Z,4.00
2018-10-21T15:45:14.960Z,4.10
2018-10-21T15:47:42.250Z,3.92
2018-10-21T15:50:09.622Z,4.08
2018-10-21T15:52:36.933Z,3.87
2018-10-21T15:55:04.873Z,3.92
2018-10-21T15:57:32.228Z,4.08
2018-10-21T15:59:59.480Z,3.65
2018-10-21T16:02:26.812Z,3.70
2018-10-21T16:04:54.139Z,3.67
2018-10-21T16:07:21.474Z,4.25
2018-10-21T16:09:48.773Z,4.15
2018-10-21T16:12:16.221Z,3.95
2018-10-21T16:14:43.541Z,3.60
2018-10-21T16:17:10.845Z,3.50
2018-10-21T16:19:38.239Z,3.58
2018-10-21T16:22:05.714Z,3.72
2018-10-21T16:24:33.007Z,3.47
2018-10-21T16:27:00.312Z,3.90
2018-10-21T16:29:27.617Z,3.33
2018-10-21T16:31:55.247Z,3.75
2018-10-21T16:34:22.475Z,3.20
2018-10-21T16:36:49.822Z,3.75
2018-10-21T16:39:17.208Z,3.60
2018-10-21T16:41:44.527Z,3.20
2018-10-21T16:44:11.827Z,4.22
2018-10-21T16:46:39.143Z,3.75
2018-10-21T16:49:06.629Z,3.95
2018-10-21T16:51:34.011Z,4.08
2018-10-21T16:54:01.283Z,3.90
2018-10-21T16:56:28.585Z,3.70
2018-10-21T16:58:55.931Z,3.50
2018-10-21T17:01:23.201Z,3.90
2018-10-21T17:03:50.566Z,3.97
2018-10-21T17:06:17.837Z,3.50
2018-10-21T17:08:45.142Z,3.80
2018-10-21T17:11:12.546Z,3.70
2018-10-21T17:13:39.777Z,4.13
2018-10-21T17:16:07.391Z,4.73
2018-10-21T17:18:34.711Z,5.30
2018-10-21T17:21:02.008Z,5.70
2018-10-21T17:23:29.334Z,6.40
2018-10-21T17:26:21.558Z,6.60
2018-10-21T17:29:18.806Z,6.27
2018-10-21T17:31:47.366Z,6.47
2018-10-21T17:34:14.782Z,6.23
2018-10-21T17:36:42.019Z,6.33
2018-10-21T17:39:12.046Z,5.57
2018-10-21T17:41:39.381Z,6.30
2018-10-21T17:44:06.804Z,7.33
2018-10-21T17:46:34.257Z,5.27
2018-10-21T17:49:01.588Z,6.73
2018-10-21T17:51:28.933Z,6.60
2018-10-21T17:53:56.272Z,6.57
2018-10-21T17:56:23.609Z,7.50
2018-10-21T17:58:50.951Z,18.73
2018-10-21T18:01:18.853Z,26.13
2018-10-21T18:03:46.133Z,58.27
2018-10-21T18:06:13.518Z,47.60
2018-10-21T18:08:40.830Z,36.37
2018-10-21T18:11:08.180Z,11.33
2018-10-21T18:13:35.518Z,15.83
2018-10-21T18:16:03.030Z,10.70
2018-10-21T18:18:30.341Z,9.23
2018-10-21T18:20:57.669Z,7.40
2018-10-21T18:23:25.021Z,6.90
2018-10-21T18:25:52.367Z,6.77
2018-10-21T18:28:19.683Z,6.73
2018-10-21T18:30:47.033Z,5.77
2018-10-21T18:33:14.455Z,6.37
2018-10-21T18:35:41.837Z,6.70
2018-10-21T18:38:09.137Z,6.60
2018-10-21T18:40:36.518Z,7.87
2018-10-21T18:43:04.016Z,7.70
2018-10-21T18:45:31.367Z,6.87
2018-10-21T18:47:58.701Z,7.00
2018-10-21T18:50:26.097Z,6.37
2018-10-21T18:52:53.621Z,6.43
2018-10-21T18:55:20.946Z,7.57
2018-10-21T18:57:48.257Z,6.87
2018-10-21T19:00:16.978Z,7.13
2018-10-21T19:02:44.424Z,6.77
2018-10-21T19:05:12.468Z,6.40
2018-10-21T19:07:39.937Z,7.17
2018-10-21T19:10:09.449Z,7.00
2018-10-21T19:12:36.838Z,6.77
2018-10-21T19:15:04.538Z,6.60
2018-10-21T19:17:32.066Z,7.20
2018-10-21T19:19:59.419Z,7.07
2018-10-21T19:22:26.790Z,7.10
2018-10-21T19:24:54.184Z,8.17
2018-10-21T19:27:21.507Z,9.53
2018-10-21T19:29:48.846Z,7.70
2018-10-21T19:32:16.174Z,7.53
2018-10-21T19:34:43.513Z,7.80
2018-10-21T19:37:10.944Z,7.17
2018-10-21T19:39:38.198Z,7.30
2018-10-21T19:42:05.744Z,7.73
2018-10-21T19:44:33.712Z,7.70
2018-10-21T19:47:01.018Z,7.47
2018-10-21T19:49:28.306Z,7.97
2018-10-21T19:51:55.737Z,7.80
2018-10-21T19:54:23.111Z,7.60
2018-10-21T19:56:50.492Z,7.50
2018-10-21T19:59:17.830Z,8.00
2018-10-21T20:01:45.135Z,8.20
2018-10-21T20:04:12.653Z,7.73
2018-10-21T20:06:39.888Z,6.87
2018-10-21T20:09:08.413Z,7.10
2018-10-21T20:11:36.173Z,7.60
2018-10-21T20:14:03.563Z,7.17
2018-10-21T20:16:30.886Z,7.60
2018-10-21T20:18:58.279Z,7.63
2018-10-21T20:21:25.603Z,8.43
2018-10-21T20:23:53.109Z,7.70
2018-10-21T20:26:46.730Z,8.30
2018-10-21T20:29:15.400Z,27.73
2018-10-21T20:31:42.675Z,10.97
2018-10-21T20:34:09.975Z,10.37
2018-10-21T20:36:37.339Z,9.03
2018-10-21T20:39:07.106Z,8.40
2018-10-21T20:41:34.404Z,7.63
2018-10-21T20:44:01.727Z,7.83
2018-10-21T20:46:29.005Z,8.30
2018-10-21T20:48:56.292Z,7.03
2018-10-21T20:51:23.749Z,7.50
2018-10-21T20:53:50.944Z,7.43
2018-10-21T20:56:18.221Z,6.87
2018-10-21T20:58:45.585Z,7.33
2018-10-21T21:01:12.897Z,7.30
2018-10-21T21:03:40.260Z,7.17
2018-10-21T21:06:07.580Z,7.50
2018-10-21T21:08:34.809Z,7.67
2018-10-21T21:11:02.140Z,7.50
2018-10-21T21:13:29.464Z,7.00
2018-10-21T21:15:56.782Z,7.17
2018-10-21T21:18:24.060Z,7.40
2018-10-21T21:20:51.362Z,7.50
2018-10-21T21:23:18.656Z,7.33
2018-10-21T21:25:45.921Z,7.50
2018-10-21T21:28:14.033Z,6.93
2018-10-21T21:30:41.443Z,7.50
2018-10-21T21:33:08.845Z,7.97
2018-10-21T21:35:36.311Z,7.47
2018-10-21T21:38:03.933Z,7.77
2018-10-21T21:40:31.212Z,7.37
2018-10-21T21:42:58.541Z,7.03
2018-10-21T21:45:25.857Z,7.40
2018-10-21T21:47:53.170Z,7.10
2018-10-21T21:50:20.447Z,7.47
2018-10-21T21:52:47.733Z,7.57
2018-10-21T21:55:15.117Z,7.77
2018-10-21T21:57:42.457Z,7.80
2018-10-21T22:00:12.273Z,8.00
2018-10-21T22:02:39.525Z,8.03
2018-10-21T22:05:07.629Z,8.10
2018-10-21T22:07:35.608Z,7.63
2018-10-21T22:10:03.038Z,7.60
2018-10-21T22:12:30.294Z,7.73
2018-10-21T22:14:57.640Z,8.37
2018-10-21T22:17:25.014Z,8.17
2018-10-21T22:19:52.310Z,8.00
2018-10-21T22:22:19.912Z,8.23
2018-10-21T22:24:47.192Z,7.87
2018-10-21T22:27:14.521Z,7.87
2018-10-21T22:29:41.811Z,8.23
2018-10-21T22:32:09.140Z,8.00
2018-10-21T22:34:36.505Z,8.23
2018-10-21T22:37:04.237Z,8.03
2018-10-21T22:39:31.542Z,8.03
2018-10-21T22:41:58.823Z,7.53
2018-10-21T22:44:26.123Z,8.30
2018-10-21T22:46:53.541Z,8.40
2018-10-21T22:49:20.787Z,8.47
2018-10-21T22:51:48.079Z,7.57
2018-10-21T22:54:15.460Z,7.60
2018-10-21T22:56:42.746Z,8.87
2018-10-21T22:59:10.053Z,7.70
2018-10-21T23:01:37.344Z,8.20
2018-10-21T23:04:04.788Z,8.07
2018-10-21T23:06:32.025Z,8.87
2018-10-21T23:08:59.351Z,8.37
2018-10-21T23:11:26.651Z,8.57
2018-10-21T23:13:53.974Z,8.10
2018-10-21T23:16:21.316Z,8.17
2018-10-21T23:18:48.720Z,8.10
2018-10-21T23:21:15.943Z,8.47
2018-10-21T23:23:43.302Z,8.53
2018-10-21T23:26:10.605Z,8.70
2018-10-21T23:28:37.904Z,8.10
2018-10-21T23:31:05.210Z,8.40
2018-10-21T23:33:32.569Z,8.50
2018-10-21T23:35:59.933Z,8.47
2018-10-21T23:38:27.288Z,8.83
2018-10-21T23:40:54.582Z,9.17
2018-10-21T23:43:21.905Z,8.77
2018-10-21T23:45:49.247Z,8.50
2018-10-21T23:48:16.592Z,8.70
2018-10-21T23:50:43.897Z,8.07
2018-10-21T23:53:11.383Z,7.97
2018-10-21T23:55:38.710Z,8.10
2018-10-21T23:58:06.041Z,8.60
